This is the latest recevied weather packets stored in our database for station/object K9TLD. If no packets are shown the sender has not sent any weather packets the latest 10 day(s).
| Time | Temp. | Humidity | Pressure | Rain* | Wind** | Luminosity | Snow |
|---|---|---|---|---|---|---|---|
| 1778116130 | 8.33° C | 51% | 1015.2 hPa | 0 mm | - | 1 W/m² | - |
| 1778115826 | 8.89° C | 51% | 1015.2 hPa | 0 mm | - | 1 W/m² | - |
| 1778115523 | 8.89° C | 50% | 1015.2 hPa | 0 mm | - | 2 W/m² | - |
| 1778115219 | 8.89° C | 49% | 1015 hPa | 0 mm | - | 4 W/m² | - |
| 1778114917 | 8.89° C | 49% | 1015 hPa | 0 mm | - | 5 W/m² | - |
| 1778114614 | 9.44° C | 48% | 1014.8 hPa | 0 mm | - | 7 W/m² | - |
| 1778114311 | 9.44° C | 48% | 1015 hPa | 0 mm | - | 9 W/m² | - |
| 1778114006 | 9.44° C | 48% | 1014.7 hPa | 0 mm | - | 12 W/m² | - |
| 1778113701 | 9.44° C | 48% | 1014.5 hPa | 0 mm | - | 15 W/m² | - |
| 1778113398 | 10° C | 48% | 1014.6 hPa | 0 mm | - | 16 W/m² | - |
| 1778113096 | 10° C | 47% | 1014.7 hPa | 0 mm | - | 18 W/m² | - |
| 1778112792 | 10° C | 48% | 1014.6 hPa | 0 mm | - | 21 W/m² | - |
| 1778112489 | 10° C | 48% | 1014.4 hPa | 0 mm | - | 28 W/m² | - |
| 1778112184 | 10° C | 47% | 1014.6 hPa | 0 mm | - | 28 W/m² | - |
| 1778111881 | 10° C | 47% | 1014.5 hPa | 0 mm | - | 32 W/m² | - |
| 1778111576 | 10° C | 48% | 1014.7 hPa | 0 mm | - | 42 W/m² | - |
| 1778111268 | 10° C | 48% | 1014.5 hPa | 0 mm | - | 46 W/m² | - |
| 1778110965 | 10° C | 48% | 1014.5 hPa | 0 mm | - | 43 W/m² | - |
| 1778110662 | 9.44° C | 53% | 1014.4 hPa | 0 mm | - | 41 W/m² | - |
| 1778110358 | 8.33° C | 66% | 1014.5 hPa | 0 mm | - | 41 W/m² | - |
| 1778110050 | 8.33° C | 73% | 1014.4 hPa | 0 mm | - | 52 W/m² | - |
| 1778109750 | 7.78° C | 74% | 1014.5 hPa | 0 mm | - | 46 W/m² | - |
| 1778109447 | 7.78° C | 75% | 1014.5 hPa | 0 mm | - | 44 W/m² | - |
| 1778109146 | 7.22° C | 76% | 1014.2 hPa | 0 mm | - | 43 W/m² | - |
| 1778108842 | 7.22° C | 76% | 1014.4 hPa | 0 mm | - | 39 W/m² | - |
* Rain latest hour (hover to see other rain measurements)
** Current wind speed in m/s (hover to see current wind gust speed)